createdAt,value
2022-10-10T00:01:15.953Z,14.50
2022-10-10T00:03:44.415Z,14.50
2022-10-10T00:06:13.825Z,14.50
2022-10-10T00:08:42.698Z,14.50
2022-10-10T00:11:12.135Z,14.40
2022-10-10T00:13:41.140Z,14.50
2022-10-10T00:16:09.859Z,14.40
2022-10-10T00:18:40.060Z,14.40
2022-10-10T00:21:08.460Z,14.40
2022-10-10T00:23:36.877Z,14.40
2022-10-10T00:26:08.765Z,14.40
2022-10-10T00:28:39.092Z,14.40
2022-10-10T00:31:08.883Z,14.40
2022-10-10T00:33:39.149Z,14.30
2022-10-10T00:36:08.118Z,14.30
2022-10-10T00:38:36.393Z,14.30
2022-10-10T00:41:05.455Z,14.30
2022-10-10T00:43:34.064Z,14.30
2022-10-10T00:46:02.374Z,14.30
2022-10-10T00:48:32.778Z,14.30
2022-10-10T00:51:07.077Z,14.30
2022-10-10T00:53:39.477Z,14.30
2022-10-10T00:56:08.832Z,14.30
2022-10-10T00:58:38.861Z,14.20
2022-10-10T01:01:08.117Z,14.30
2022-10-10T01:03:36.454Z,14.20
2022-10-10T01:06:07.365Z,14.20
2022-10-10T01:08:36.164Z,14.20
2022-10-10T01:11:22.085Z,14.20
2022-10-10T01:14:01.970Z,14.20
2022-10-10T01:16:37.524Z,14.20
2022-10-10T01:19:28.229Z,14.20
2022-10-10T01:22:12.163Z,14.20
2022-10-10T01:24:55.936Z,14.10
2022-10-10T01:27:31.445Z,14.20
2022-10-10T01:30:05.864Z,14.10
2022-10-10T01:32:39.558Z,14.10
2022-10-10T01:35:25.139Z,14.10
2022-10-10T01:38:01.001Z,14.10
2022-10-10T01:40:34.826Z,14.10
2022-10-10T01:43:05.331Z,14.10
2022-10-10T01:45:35.342Z,14.10
2022-10-10T01:48:05.708Z,14.10
2022-10-10T01:50:39.158Z,14.10
2022-10-10T01:53:15.443Z,14.10
2022-10-10T01:56:02.332Z,14.00
2022-10-10T01:58:45.432Z,14.00
2022-10-10T02:01:19.979Z,14.00
2022-10-10T02:03:53.616Z,14.00
2022-10-10T02:06:26.814Z,14.00
2022-10-10T02:09:00.365Z,14.00
2022-10-10T02:11:30.763Z,14.00
2022-10-10T02:14:05.063Z,14.00
2022-10-10T02:16:39.512Z,13.90
2022-10-10T02:19:11.626Z,13.90
2022-10-10T02:21:41.559Z,13.90
2022-10-10T02:24:12.055Z,13.90
2022-10-10T02:26:42.356Z,13.90
2022-10-10T02:29:16.873Z,13.90
2022-10-10T02:31:55.013Z,13.90
2022-10-10T02:34:26.817Z,13.90
2022-10-10T02:36:59.294Z,13.90
2022-10-10T02:39:31.196Z,13.90
2022-10-10T02:41:59.347Z,13.90
2022-10-10T02:44:28.401Z,13.80
2022-10-10T02:46:58.491Z,13.90
2022-10-10T02:49:29.417Z,13.90
2022-10-10T02:51:57.766Z,13.80
2022-10-10T02:54:26.129Z,13.90
2022-10-10T02:56:54.999Z,13.80
2022-10-10T02:59:23.332Z,13.80
2022-10-10T03:01:51.835Z,13.80
2022-10-10T03:04:21.355Z,13.80
2022-10-10T03:06:50.029Z,13.80
2022-10-10T03:09:18.776Z,13.80
2022-10-10T03:11:47.333Z,13.80
2022-10-10T03:14:16.123Z,13.80
2022-10-10T03:16:44.652Z,13.80
2022-10-10T03:19:13.413Z,13.80
2022-10-10T03:21:43.393Z,13.70
2022-10-10T03:24:12.104Z,13.80
2022-10-10T03:26:40.889Z,13.80
2022-10-10T03:29:09.809Z,13.70
2022-10-10T03:31:38.463Z,13.70
2022-10-10T03:34:07.091Z,13.70
2022-10-10T03:36:35.881Z,13.70
2022-10-10T03:39:06.437Z,13.70
2022-10-10T03:41:35.279Z,13.70
2022-10-10T03:44:03.891Z,13.70
2022-10-10T03:46:32.427Z,13.70
2022-10-10T03:49:01.098Z,13.60
2022-10-10T03:51:29.805Z,13.70
2022-10-10T03:53:58.324Z,13.60
2022-10-10T03:56:29.262Z,13.60
2022-10-10T03:59:00.757Z,13.60
2022-10-10T04:01:31.740Z,13.60
2022-10-10T04:04:02.195Z,13.60
2022-10-10T04:06:31.920Z,13.60
2022-10-10T04:09:07.602Z,13.60
2022-10-10T04:11:40.995Z,13.60
2022-10-10T04:14:11.805Z,13.60
2022-10-10T04:16:42.812Z,13.60
2022-10-10T04:19:12.457Z,13.60
2022-10-10T04:21:42.250Z,13.60
2022-10-10T04:24:16.466Z,13.60
2022-10-10T04:26:46.884Z,13.60
2022-10-10T04:29:17.308Z,13.50
2022-10-10T04:31:46.108Z,13.50
2022-10-10T04:34:18.488Z,13.50
2022-10-10T04:36:49.316Z,13.50
2022-10-10T04:39:18.821Z,13.50
2022-10-10T04:41:50.660Z,13.50
2022-10-10T04:44:20.859Z,13.50
2022-10-10T04:46:49.912Z,13.50
2022-10-10T04:49:19.869Z,13.40
2022-10-10T04:51:50.440Z,13.40
2022-10-10T04:54:19.900Z,13.40
2022-10-10T04:56:50.793Z,13.40
2022-10-10T04:59:22.593Z,13.40
2022-10-10T05:01:52.405Z,13.40
2022-10-10T05:04:23.244Z,13.40
2022-10-10T05:06:52.124Z,13.30
2022-10-10T05:09:23.137Z,13.30
2022-10-10T05:11:55.787Z,13.40
2022-10-10T05:14:26.187Z,13.30
2022-10-10T05:16:55.692Z,13.40
2022-10-10T05:19:28.471Z,13.30
2022-10-10T05:21:57.643Z,13.30
2022-10-10T05:24:27.804Z,13.30
2022-10-10T05:27:01.669Z,13.30
2022-10-10T05:29:30.515Z,13.30
2022-10-10T05:31:59.273Z,13.30
2022-10-10T05:34:28.258Z,13.30
2022-10-10T05:36:58.167Z,13.30
2022-10-10T05:39:26.738Z,13.20
2022-10-10T05:41:55.659Z,13.30
2022-10-10T05:44:25.804Z,13.20
2022-10-10T05:46:55.288Z,13.30
2022-10-10T05:49:24.128Z,13.20
2022-10-10T05:51:52.556Z,13.60
2022-10-10T05:54:22.379Z,13.20
2022-10-10T05:56:51.134Z,13.20
2022-10-10T05:59:19.917Z,13.20
2022-10-10T06:01:50.139Z,13.20
2022-10-10T06:04:19.127Z,13.20
2022-10-10T06:06:47.853Z,13.20
2022-10-10T06:09:16.514Z,13.20
2022-10-10T06:11:45.408Z,13.20
2022-10-10T06:14:14.103Z,13.10
2022-10-10T06:16:45.285Z,13.20
2022-10-10T06:19:15.410Z,13.10
2022-10-10T06:21:44.255Z,13.10
2022-10-10T06:24:12.906Z,13.20
2022-10-10T06:26:41.619Z,13.10
2022-10-10T06:29:10.409Z,13.10
2022-10-10T06:31:41.248Z,13.10
2022-10-10T06:34:09.737Z,13.10
2022-10-10T06:36:39.956Z,13.10
2022-10-10T06:39:08.567Z,13.10
2022-10-10T06:41:37.303Z,13.20
2022-10-10T06:44:12.361Z,13.10
2022-10-10T06:46:41.275Z,13.20
2022-10-10T06:49:11.014Z,13.20
2022-10-10T06:51:41.029Z,13.20
2022-10-10T06:54:09.669Z,13.20
2022-10-10T06:56:38.482Z,13.20
2022-10-10T06:59:07.389Z,13.20
2022-10-10T07:01:36.066Z,13.20
2022-10-10T07:04:05.446Z,13.20
2022-10-10T07:06:35.053Z,13.20
2022-10-10T07:09:05.277Z,13.30
2022-10-10T07:11:36.966Z,13.50
2022-10-10T07:14:05.795Z,13.30
2022-10-10T07:16:34.777Z,13.30
2022-10-10T07:19:03.265Z,13.30
2022-10-10T07:21:31.982Z,13.30
2022-10-10T07:24:00.766Z,13.60
2022-10-10T07:26:36.925Z,13.40
2022-10-10T07:29:06.450Z,13.30
2022-10-10T07:31:34.831Z,13.30
2022-10-10T07:34:03.076Z,13.40
2022-10-10T07:36:31.504Z,13.40
2022-10-10T07:38:59.721Z,13.40
2022-10-10T07:41:27.969Z,13.70
2022-10-10T07:43:57.720Z,13.40
2022-10-10T07:46:26.137Z,13.40
2022-10-10T07:48:54.513Z,13.40
2022-10-10T07:51:23.268Z,13.40
2022-10-10T07:53:53.385Z,13.40
2022-10-10T07:56:22.178Z,13.50
2022-10-10T07:58:50.376Z,13.50
2022-10-10T08:01:20.347Z,13.50
2022-10-10T08:03:48.835Z,13.50
2022-10-10T08:06:19.052Z,13.50
2022-10-10T08:08:52.018Z,13.50
2022-10-10T08:11:22.139Z,13.50
2022-10-10T08:13:50.816Z,13.50
2022-10-10T08:16:20.876Z,13.50
2022-10-10T08:18:49.439Z,13.50
2022-10-10T08:21:18.477Z,13.60
2022-10-10T08:23:46.795Z,13.60
2022-10-10T08:26:16.921Z,13.60
2022-10-10T08:28:45.720Z,13.60
2022-10-10T08:31:15.547Z,13.60
2022-10-10T08:33:46.774Z,13.70
2022-10-10T08:36:17.046Z,13.70
2022-10-10T08:38:45.761Z,13.70
2022-10-10T08:41:25.547Z,13.70
2022-10-10T08:44:00.917Z,13.70
2022-10-10T08:46:37.590Z,13.70
2022-10-10T08:49:17.978Z,13.70
2022-10-10T08:51:53.188Z,13.80
2022-10-10T08:54:26.764Z,13.80
2022-10-10T08:57:00.011Z,13.80
2022-10-10T08:59:32.593Z,13.80
2022-10-10T09:02:23.465Z,13.90
2022-10-10T09:04:57.037Z,13.90
2022-10-10T09:07:37.913Z,13.90
2022-10-10T09:10:17.020Z,13.90
2022-10-10T09:12:54.131Z,13.90
2022-10-10T09:15:26.884Z,14.00
2022-10-10T09:18:05.541Z,14.00
2022-10-10T09:20:44.732Z,14.00
2022-10-10T09:23:21.024Z,14.00
2022-10-10T09:25:54.927Z,14.10
2022-10-10T09:28:37.047Z,14.10
2022-10-10T09:31:09.827Z,14.10
2022-10-10T09:33:42.734Z,14.00
2022-10-10T09:36:18.412Z,14.20
2022-10-10T09:38:51.285Z,14.20
2022-10-10T09:41:24.183Z,14.20
2022-10-10T09:43:57.477Z,14.20
2022-10-10T09:46:26.486Z,14.30
2022-10-10T09:48:55.817Z,14.30
2022-10-10T09:51:25.493Z,14.30
2022-10-10T09:53:53.948Z,14.30
2022-10-10T09:56:25.359Z,14.30
2022-10-10T09:58:55.994Z,14.30
2022-10-10T10:01:28.792Z,14.40
2022-10-10T10:04:29.386Z,14.40
2022-10-10T10:07:08.964Z,14.40
2022-10-10T10:09:37.615Z,14.40
2022-10-10T10:12:07.302Z,14.50
2022-10-10T10:14:39.462Z,14.50
2022-10-10T10:17:09.969Z,14.50
2022-10-10T10:19:40.292Z,14.60
2022-10-10T10:22:26.764Z,14.60
2022-10-10T10:24:55.495Z,14.60
2022-10-10T10:27:25.695Z,14.60
2022-10-10T10:29:55.261Z,14.70
2022-10-10T10:32:50.413Z,14.70
2022-10-10T10:35:28.629Z,14.70
2022-10-10T10:38:15.071Z,14.80
2022-10-10T10:40:51.402Z,14.80
2022-10-10T10:43:37.255Z,14.80
2022-10-10T10:46:12.604Z,14.80
2022-10-10T10:48:46.886Z,14.90
2022-10-10T10:51:35.150Z,14.90
2022-10-10T10:54:17.521Z,15.00
2022-10-10T10:56:51.748Z,15.00
2022-10-10T11:00:21.918Z,15.00
2022-10-10T11:03:05.926Z,15.00
2022-10-10T11:05:42.126Z,15.10
2022-10-10T11:08:33.030Z,15.20
2022-10-10T11:11:25.481Z,15.20
2022-10-10T11:14:01.417Z,15.30
2022-10-10T11:16:48.009Z,15.30
2022-10-10T11:19:26.502Z,15.30
2022-10-10T11:21:59.260Z,15.40
2022-10-10T11:24:39.498Z,15.40
2022-10-10T11:27:14.395Z,15.40
2022-10-10T11:30:04.461Z,15.50
2022-10-10T11:32:38.660Z,15.50
2022-10-10T11:35:18.269Z,15.60
2022-10-10T11:37:53.224Z,15.60
2022-10-10T11:40:36.334Z,15.70
2022-10-10T11:43:10.054Z,15.70
2022-10-10T11:45:46.612Z,15.70
2022-10-10T11:48:26.547Z,15.70
2022-10-10T11:51:00.600Z,15.80
2022-10-10T11:53:35.003Z,15.80
2022-10-10T11:56:11.247Z,15.80
2022-10-10T11:58:43.402Z,15.80
2022-10-10T12:01:18.762Z,15.80
2022-10-10T12:03:47.042Z,15.90
2022-10-10T12:06:23.725Z,15.90
2022-10-10T12:08:58.424Z,15.90
2022-10-10T12:11:33.033Z,15.90
2022-10-10T12:14:04.963Z,16.00
2022-10-10T12:16:36.365Z,15.90
2022-10-10T12:19:07.752Z,16.00
2022-10-10T12:21:55.095Z,16.00
2022-10-10T12:24:24.268Z,16.00
2022-10-10T12:27:30.446Z,16.10
2022-10-10T12:30:21.458Z,16.10
2022-10-10T12:32:54.382Z,16.10
2022-10-10T12:35:44.681Z,16.10
2022-10-10T12:38:24.307Z,16.10
2022-10-10T12:41:13.758Z,16.10
2022-10-10T12:43:45.454Z,16.20
2022-10-10T12:46:36.385Z,16.20
2022-10-10T12:49:17.025Z,16.20
2022-10-10T12:51:58.692Z,16.20
2022-10-10T12:54:31.383Z,16.30
2022-10-10T12:57:10.195Z,16.30
2022-10-10T12:59:39.596Z,16.40
2022-10-10T13:02:17.623Z,16.40
2022-10-10T13:04:47.351Z,16.40
2022-10-10T13:07:18.731Z,16.40
2022-10-10T13:09:48.676Z,16.50
2022-10-10T13:12:28.001Z,16.50
2022-10-10T13:14:58.196Z,16.50
2022-10-10T13:17:29.936Z,16.50
2022-10-10T13:20:00.197Z,16.50
2022-10-10T13:22:29.848Z,16.60
2022-10-10T13:25:00.526Z,16.60
2022-10-10T13:27:31.162Z,16.60
2022-10-10T13:30:00.065Z,16.70
2022-10-10T13:32:33.507Z,16.70
2022-10-10T13:35:05.098Z,16.70
2022-10-10T13:37:33.814Z,16.70
2022-10-10T13:40:02.664Z,16.80
2022-10-10T13:42:34.854Z,16.80
2022-10-10T13:45:23.338Z,16.80
2022-10-10T13:47:58.279Z,16.80
2022-10-10T13:50:31.060Z,16.80
2022-10-10T13:53:38.987Z,16.90
2022-10-10T13:56:13.657Z,16.90
2022-10-10T13:58:45.347Z,16.90
2022-10-10T14:01:32.019Z,16.90
2022-10-10T14:04:16.302Z,16.90
2022-10-10T14:06:54.346Z,16.90
2022-10-10T14:09:28.120Z,16.90
2022-10-10T14:11:57.890Z,16.90
2022-10-10T14:14:27.802Z,16.90
2022-10-10T14:17:00.559Z,16.90
2022-10-10T14:19:31.167Z,16.90
2022-10-10T14:21:59.527Z,16.90
2022-10-10T14:24:27.629Z,16.90
2022-10-10T14:26:55.863Z,16.90
2022-10-10T14:29:24.173Z,16.90
2022-10-10T14:31:52.355Z,16.90
2022-10-10T14:34:20.462Z,16.80
2022-10-10T14:36:51.275Z,16.80
2022-10-10T14:39:20.544Z,16.80
2022-10-10T14:41:48.738Z,16.80
2022-10-10T14:44:16.858Z,16.80
2022-10-10T14:46:45.316Z,16.80
2022-10-10T14:49:19.335Z,16.80
2022-10-10T14:51:49.080Z,16.70
2022-10-10T14:54:17.333Z,16.70
2022-10-10T14:57:06.858Z,16.70
2022-10-10T14:59:48.254Z,16.70
2022-10-10T15:02:22.374Z,16.70
2022-10-10T15:04:51.517Z,16.60
2022-10-10T15:07:21.263Z,16.60
2022-10-10T15:12:41.961Z,16.60
2022-10-10T15:15:12.135Z,16.60
2022-10-10T15:17:40.759Z,16.60
2022-10-10T15:20:11.646Z,16.60
2022-10-10T15:22:41.692Z,16.60
2022-10-10T15:25:10.892Z,16.60
2022-10-10T15:27:39.249Z,16.60
2022-10-10T15:30:09.091Z,16.60
2022-10-10T15:32:40.661Z,16.60
2022-10-10T15:35:13.481Z,16.50
2022-10-10T15:37:43.171Z,16.60
2022-10-10T15:40:13.424Z,16.50
2022-10-10T15:42:41.741Z,16.50
2022-10-10T15:45:11.086Z,16.50
2022-10-10T15:50:28.510Z,16.50
2022-10-10T15:52:58.256Z,16.50
2022-10-10T15:55:26.487Z,16.50
2022-10-10T15:57:54.656Z,16.40
2022-10-10T15:59:17.787Z,16.50
2022-10-10T16:00:22.996Z,16.50
2022-10-10T16:02:51.129Z,16.40
2022-10-10T16:05:19.576Z,16.40
2022-10-10T16:07:48.584Z,16.40
2022-10-10T16:10:18.389Z,16.40
2022-10-10T16:12:46.571Z,16.40
2022-10-10T16:15:14.861Z,16.40
2022-10-10T16:17:43.201Z,16.40
2022-10-10T16:20:12.350Z,16.40
2022-10-10T16:22:40.524Z,16.40
2022-10-10T16:25:24.246Z,16.40
2022-10-10T16:27:53.878Z,16.40
2022-10-10T16:30:22.351Z,16.30
2022-10-10T16:32:50.675Z,16.30
2022-10-10T16:35:19.070Z,16.30
2022-10-10T16:37:47.449Z,16.30
2022-10-10T16:40:15.943Z,16.20
2022-10-10T16:42:44.436Z,16.30
2022-10-10T16:45:14.534Z,16.20
2022-10-10T16:47:42.891Z,16.20
2022-10-10T16:50:11.555Z,16.10
2022-10-10T16:52:40.474Z,16.20
2022-10-10T16:55:11.215Z,16.10
2022-10-10T16:57:39.978Z,16.10
2022-10-10T17:00:10.044Z,16.00
2022-10-10T17:02:47.251Z,16.00
2022-10-10T17:05:15.643Z,16.00
2022-10-10T17:07:44.077Z,15.90
2022-10-10T17:10:12.318Z,15.90
2022-10-10T17:12:43.776Z,15.90
2022-10-10T17:15:12.056Z,15.80
2022-10-10T17:17:42.011Z,15.80
2022-10-10T17:20:11.603Z,15.70
2022-10-10T17:22:40.999Z,15.70
2022-10-10T17:25:10.282Z,15.70
2022-10-10T17:27:40.194Z,15.60
2022-10-10T17:30:12.663Z,15.60
2022-10-10T17:32:44.394Z,15.60
2022-10-10T17:35:12.887Z,15.60
2022-10-10T17:37:41.062Z,15.50
2022-10-10T17:40:10.553Z,15.50
2022-10-10T17:42:38.999Z,15.50
2022-10-10T17:45:08.101Z,15.60
2022-10-10T17:47:36.604Z,15.50
2022-10-10T17:50:07.467Z,15.50
2022-10-10T17:52:35.906Z,15.50
2022-10-10T17:55:04.116Z,15.50
2022-10-10T17:57:33.345Z,15.40
2022-10-10T18:00:02.066Z,15.40
2022-10-10T18:02:32.990Z,15.40
2022-10-10T18:05:01.240Z,15.40
2022-10-10T18:07:30.817Z,15.40
2022-10-10T18:09:59.069Z,15.30
2022-10-10T18:12:27.345Z,15.40
2022-10-10T18:14:55.625Z,15.30
2022-10-10T18:17:23.773Z,15.30
2022-10-10T18:19:51.933Z,15.30
2022-10-10T18:22:20.346Z,15.20
2022-10-10T18:24:50.125Z,15.20
2022-10-10T18:27:18.219Z,15.20
2022-10-10T18:29:46.368Z,15.40
2022-10-10T18:32:14.535Z,15.30
2022-10-10T18:34:42.674Z,15.20
2022-10-10T18:37:10.940Z,15.30
2022-10-10T18:39:40.313Z,15.30
2022-10-10T18:42:10.417Z,15.20
2022-10-10T18:44:38.647Z,15.20
2022-10-10T18:47:06.982Z,15.20
2022-10-10T18:49:35.313Z,15.20
2022-10-10T18:52:04.289Z,15.20
2022-10-10T18:54:33.342Z,15.50
2022-10-10T18:57:02.109Z,15.30
2022-10-10T18:59:32.075Z,15.20
2022-10-10T19:02:00.557Z,15.30
2022-10-10T19:04:28.765Z,15.20
2022-10-10T19:06:57.765Z,15.20
2022-10-10T19:09:26.705Z,15.20
2022-10-10T19:11:59.673Z,15.20
2022-10-10T19:14:28.082Z,15.20
2022-10-10T19:16:57.916Z,15.20
2022-10-10T19:19:26.057Z,15.20
2022-10-10T19:21:54.381Z,15.10
2022-10-10T19:24:22.591Z,15.10
2022-10-10T19:26:53.488Z,15.10
2022-10-10T19:29:24.077Z,15.10
2022-10-10T19:31:52.450Z,15.10
2022-10-10T19:34:24.955Z,15.10
2022-10-10T19:36:53.826Z,15.10
2022-10-10T19:39:22.566Z,15.10
2022-10-10T19:41:55.437Z,15.10
2022-10-10T19:44:24.930Z,15.10
2022-10-10T19:46:54.351Z,15.10
2022-10-10T19:49:24.413Z,15.10
2022-10-10T19:51:53.944Z,15.10
2022-10-10T19:54:22.468Z,15.30
2022-10-10T19:56:50.928Z,15.10
2022-10-10T19:59:19.158Z,15.20
2022-10-10T20:01:47.786Z,15.20
2022-10-10T20:04:16.005Z,15.20
2022-10-10T20:06:45.628Z,15.20
2022-10-10T20:09:13.825Z,15.20
2022-10-10T20:11:42.234Z,15.20
2022-10-10T20:14:10.601Z,15.20
2022-10-10T20:16:38.968Z,15.20
2022-10-10T20:19:07.293Z,15.20
2022-10-10T20:21:36.180Z,15.20
2022-10-10T20:24:08.645Z,15.20
2022-10-10T20:26:37.779Z,15.20
2022-10-10T20:29:06.771Z,15.10
2022-10-10T20:31:37.040Z,15.10
2022-10-10T20:34:07.237Z,15.10
2022-10-10T20:36:36.268Z,15.10
2022-10-10T20:39:08.858Z,15.10
2022-10-10T20:41:38.701Z,15.10
2022-10-10T20:44:09.117Z,15.10
2022-10-10T20:46:40.804Z,15.10
2022-10-10T20:49:13.080Z,15.10
2022-10-10T20:51:41.395Z,15.00
2022-10-10T20:54:12.445Z,15.00
2022-10-10T20:56:40.770Z,15.00
2022-10-10T20:59:10.673Z,15.00
2022-10-10T21:01:39.727Z,15.00
2022-10-10T21:04:10.593Z,15.00
2022-10-10T21:06:39.894Z,14.90
2022-10-10T21:09:11.105Z,15.00
2022-10-10T21:11:40.103Z,15.00
2022-10-10T21:14:08.701Z,14.90
2022-10-10T21:16:38.595Z,14.90
2022-10-10T21:19:10.998Z,14.90
2022-10-10T21:21:40.528Z,14.90
2022-10-10T21:24:12.106Z,14.90
2022-10-10T21:26:41.571Z,14.90
2022-10-10T21:29:10.183Z,14.80
2022-10-10T21:31:41.109Z,14.80
2022-10-10T21:34:13.352Z,14.80
2022-10-10T21:36:41.618Z,14.80
2022-10-10T21:39:11.767Z,14.80
2022-10-10T21:41:40.045Z,14.80
2022-10-10T21:44:08.237Z,14.80
2022-10-10T21:46:37.486Z,14.70
2022-10-10T21:49:10.299Z,14.80
2022-10-10T21:51:40.333Z,14.70
2022-10-10T21:54:09.746Z,14.70
2022-10-10T21:56:40.275Z,14.70
2022-10-10T21:59:09.027Z,14.70
2022-10-10T22:01:37.755Z,14.60
2022-10-10T22:04:06.784Z,14.60
2022-10-10T22:06:35.087Z,14.60
2022-10-10T22:09:06.394Z,14.60
2022-10-10T22:11:35.535Z,14.60
2022-10-10T22:14:05.901Z,14.60
2022-10-10T22:16:35.187Z,14.60
2022-10-10T22:19:03.475Z,14.60
2022-10-10T22:21:34.545Z,14.50
2022-10-10T22:24:05.820Z,14.50
2022-10-10T22:26:35.109Z,14.50
2022-10-10T22:29:05.121Z,14.50
2022-10-10T22:31:35.501Z,14.50
2022-10-10T22:34:03.758Z,14.50
2022-10-10T22:36:32.257Z,14.80
2022-10-10T22:39:00.411Z,14.50
2022-10-10T22:41:28.583Z,14.40
2022-10-10T22:43:56.728Z,14.40
2022-10-10T22:46:26.346Z,14.40
2022-10-10T22:48:54.627Z,14.40
2022-10-10T22:51:22.995Z,14.40
2022-10-10T22:53:51.585Z,14.40
2022-10-10T22:56:21.695Z,14.30
2022-10-10T22:58:51.572Z,14.30
2022-10-10T23:01:22.565Z,14.30
2022-10-10T23:03:55.501Z,13.90
2022-10-10T23:06:23.770Z,14.30
2022-10-10T23:08:51.914Z,14.30
2022-10-10T23:11:20.091Z,14.30
2022-10-10T23:13:48.456Z,14.30
2022-10-10T23:16:16.592Z,14.20
2022-10-10T23:18:44.874Z,14.20
2022-10-10T23:21:14.643Z,14.20
2022-10-10T23:23:42.844Z,14.20
2022-10-10T23:26:12.052Z,14.20
2022-10-10T23:28:40.308Z,14.20
2022-10-10T23:31:10.147Z,14.20
2022-10-10T23:33:39.103Z,14.20
2022-10-10T23:36:10.754Z,14.20
2022-10-10T23:38:40.630Z,14.10
2022-10-10T23:41:09.436Z,14.10
2022-10-10T23:43:37.824Z,14.10
2022-10-10T23:46:06.893Z,14.10
2022-10-10T23:48:35.608Z,14.10
2022-10-10T23:51:03.969Z,14.10
2022-10-10T23:53:32.139Z,14.10
2022-10-10T23:56:02.122Z,14.10
2022-10-10T23:58:30.581Z,14.10
